Time;durP1;ratioP1;P1;durP2;ratioP2;P2;SDS_P1;SDS_P2;PMS_P1;PMS_P2;Temp;Humidity;BMP_temperature;BMP_pressure;BME280_temperature;BME280_humidity;BME280_pressure;Samples;Min_cycle;Max_cycle;Signal;HPM_P1;HPM_P2
2022/10/01 00:00:12;;;;;;;4.50;4.10;;;;;;;8.17;100.00;99941.22;4986013;28;20253;-75
2022/10/01 00:02:38;;;;;;;3.90;3.60;;;;;;;8.19;100.00;99946.34;4986275;28;20189;-74
2022/10/01 00:05:05;;;;;;;4.17;3.87;;;;;;;8.19;100.00;99941.19;4978610;28;20351;-75
2022/10/01 00:07:37;;;;;;;3.80;3.50;;;;;;;8.19;100.00;99947.22;4984808;28;20226;-74
2022/10/01 00:10:03;;;;;;;4.00;3.70;;;;;;;8.19;100.00;99948.94;4986235;28;20221;-75
2022/10/01 00:12:28;;;;;;;3.93;3.67;;;;;;;8.18;100.00;99947.22;4978825;28;20228;-75
2022/10/01 00:14:54;;;;;;;3.90;3.60;;;;;;;8.17;100.00;99948.06;4984409;28;20267;-75
2022/10/01 00:17:19;;;;;;;3.70;3.50;;;;;;;8.16;100.00;99951.53;4998866;28;20192;-75
2022/10/01 00:19:44;;;;;;;3.70;3.47;;;;;;;8.16;100.00;99949.81;5009933;28;20245;-74
2022/10/01 00:22:10;;;;;;;3.80;3.50;;;;;;;8.15;100.00;99950.66;4992771;28;20255;-74
2022/10/01 00:24:36;;;;;;;3.70;3.40;;;;;;;8.14;100.00;99951.53;4991663;28;20196;-74
2022/10/01 00:27:01;;;;;;;3.97;3.67;;;;;;;8.14;100.00;99959.28;4982222;28;20292;-74
2022/10/01 00:29:27;;;;;;;3.60;3.40;;;;;;;8.15;100.00;99962.72;4980909;28;20737;-75
2022/10/01 00:31:52;;;;;;;3.83;3.53;;;;;;;8.15;100.00;99955.81;4982382;28;20235;-74
2022/10/01 00:34:17;;;;;;;3.67;3.37;;;;;;;8.15;100.00;99953.25;4998446;28;20912;-75
2022/10/01 00:36:43;;;;;;;3.60;3.40;;;;;;;8.15;100.00;99966.13;4986476;28;20204;-74
2022/10/01 00:39:10;;;;;;;3.77;3.47;;;;;;;8.13;100.00;99954.97;4981603;28;20300;-74
2022/10/01 00:41:36;;;;;;;4.10;3.80;;;;;;;8.16;100.00;99954.13;4979562;28;20216;-74
2022/10/01 00:44:34;;;;;;;3.97;3.67;;;;;;;8.17;100.00;99948.06;4984127;28;20196;-75
2022/10/01 00:47:30;;;;;;;3.83;3.53;;;;;;;8.19;100.00;99947.22;4984599;28;20267;-75
2022/10/01 00:50:19;;;;;;;3.47;3.27;;;;;;;8.21;100.00;99939.47;4982571;28;20693;-75
2022/10/01 00:52:51;;;;;;;3.50;3.20;;;;;;;8.24;100.00;99936.88;4983698;28;20189;-75
2022/10/01 00:55:25;;;;;;;3.77;3.47;;;;;;;8.27;100.00;99936.00;4980275;28;20280;-75
2022/10/01 00:57:52;;;;;;;3.93;3.63;;;;;;;8.31;100.00;99933.44;4982043;28;20209;-75
2022/10/01 01:00:18;;;;;;;3.53;3.33;;;;;;;8.35;100.00;99935.09;4994408;28;20256;-74
2022/10/01 01:02:43;;;;;;;3.70;3.40;;;;;;;8.35;100.00;99929.94;4981488;28;20736;-74
2022/10/01 01:05:10;;;;;;;3.47;3.17;;;;;;;8.37;100.00;99928.22;4981781;28;20181;-75
2022/10/01 01:07:36;;;;;;;3.17;2.97;;;;;;;8.41;100.00;99929.03;4985418;28;20768;-74
2022/10/01 01:10:03;;;;;;;3.37;3.17;;;;;;;8.42;100.00;99925.59;4984712;28;20222;-75
2022/10/01 01:13:06;;;;;;;3.20;3.00;;;;;;;8.45;100.00;99923.00;4977404;28;20180;-75
2022/10/01 01:15:59;;;;;;;3.10;2.90;;;;;;;8.47;100.00;99920.44;4980133;28;20206;-74
2022/10/01 01:18:34;;;;;;;3.27;2.97;;;;;;;8.48;100.00;99912.72;4994917;28;20364;-75
2022/10/01 01:21:09;;;;;;;3.00;2.70;;;;;;;8.52;100.00;99900.66;4984555;28;20224;-75
2022/10/01 01:23:56;;;;;;;3.27;2.97;;;;;;;8.53;100.00;99898.09;4989520;28;20212;-75
2022/10/01 01:26:55;;;;;;;2.87;2.67;;;;;;;8.57;100.00;99896.31;4979906;28;20189;-75
2022/10/01 01:29:42;;;;;;;3.20;2.90;;;;;;;8.61;100.00;99885.13;4945105;28;20240;-75
2022/10/01 01:32:13;;;;;;;3.20;2.90;;;;;;;8.65;100.00;99885.94;4981877;28;20265;-75
2022/10/01 01:34:42;;;;;;;3.30;3.10;;;;;;;8.68;100.00;99876.47;4981905;28;20193;-75
2022/10/01 01:37:13;;;;;;;2.83;2.40;;;;;;;8.71;100.00;99878.16;4985927;28;20216;-75
2022/10/01 01:39:42;;;;;;;2.70;2.50;;;;;;;8.73;100.00;99879.00;4981826;28;20208;-74
2022/10/01 01:42:35;;;;;;;2.63;2.50;;;;;;;8.77;100.00;99879.84;4984254;28;20839;-74
2022/10/01 01:45:03;;;;;;;2.40;2.30;;;;;;;8.76;100.00;99875.56;4981573;28;20227;-74
2022/10/01 01:47:29;;;;;;;2.70;2.50;;;;;;;8.77;100.00;99872.94;4978691;28;20216;-75
2022/10/01 01:49:56;;;;;;;2.83;2.33;;;;;;;8.77;100.00;99865.22;4979053;28;20185;-75
2022/10/01 01:52:22;;;;;;;2.60;2.40;;;;;;;8.77;100.00;99859.22;4984362;28;20185;-75
2022/10/01 01:54:49;;;;;;;2.67;2.30;;;;;;;8.78;100.00;99863.47;4980268;28;20889;-74
2022/10/01 01:57:19;;;;;;;2.70;2.50;;;;;;;8.79;100.00;99870.34;4981098;28;20317;-75
2022/10/01 01:59:45;;;;;;;2.87;2.60;;;;;;;8.78;100.00;99859.19;4976434;28;20686;-74
2022/10/01 02:02:22;;;;;;;2.63;2.43;;;;;;;8.81;100.00;99863.44;4994659;28;20213;-75
2022/10/01 02:05:16;;;;;;;3.73;2.30;;;;;;;8.82;100.00;99871.19;4982339;28;20195;-75
2022/10/01 02:07:41;;;;;;;3.37;2.50;;;;;;;8.84;100.00;99863.44;4982066;28;20659;-75
2022/10/01 02:10:35;;;;;;;2.90;2.70;;;;;;;8.89;100.00;99861.69;4980334;28;20196;-75
2022/10/01 02:13:38;;;;;;;3.33;3.03;;;;;;;8.94;100.00;99859.06;4983022;28;20188;-75
2022/10/01 02:16:23;;;;;;;3.20;2.90;;;;;;;9.00;100.00;99853.81;4973982;28;20216;-74
2022/10/01 02:19:12;;;;;;;3.20;3.00;;;;;;;9.03;100.00;99842.63;4980785;28;20184;-75
2022/10/01 02:21:42;;;;;;;3.40;3.10;;;;;;;9.06;100.00;99840.88;4979232;28;20217;-75
2022/10/01 02:24:13;;;;;;;3.33;3.00;;;;;;;9.11;100.00;99835.66;4981299;28;20192;-74
2022/10/01 02:26:42;;;;;;;3.53;3.20;;;;;;;9.11;100.00;99841.69;4973499;28;20232;-75
2022/10/01 02:29:15;;;;;;;2.70;2.50;;;;;;;9.12;100.00;99840.81;4981154;28;20193;-75
2022/10/01 02:31:40;;;;;;;2.90;2.60;;;;;;;9.16;100.00;99839.03;4976798;28;20189;-74
2022/10/01 02:34:07;;;;;;;2.90;2.60;;;;;;;9.18;100.00;99833.84;4981006;28;20189;-74
2022/10/01 02:36:36;;;;;;;2.80;2.60;;;;;;;9.21;100.00;99833.81;4983322;28;20199;-75
2022/10/01 02:39:05;;;;;;;2.93;2.73;;;;;;;9.23;100.00;99837.25;4979506;28;20224;-75
2022/10/01 02:41:34;;;;;;;3.00;2.73;;;;;;;9.23;100.00;99822.59;4982031;28;20744;-75
2022/10/01 02:44:11;;;;;;;2.70;2.50;;;;;;;9.25;100.00;99825.19;4982755;28;20188;-74
2022/10/01 02:47:01;;;;;;;2.53;2.33;;;;;;;9.26;100.00;99840.66;4980492;28;20192;-75
2022/10/01 02:49:27;;;;;;;2.10;2.00;;;;;;;9.27;100.00;99850.09;4981719;28;20196;-75
2022/10/01 02:51:56;;;;;;;2.60;2.40;;;;;;;9.29;100.00;99840.63;4979922;28;20239;-75
2022/10/01 02:54:55;;;;;;;2.60;2.40;;;;;;;9.34;100.00;99832.81;4977166;28;20189;-75
2022/10/01 02:57:26;;;;;;;2.30;2.10;;;;;;;9.35;100.00;99834.53;4982830;28;20211;-75
2022/10/01 02:59:57;;;;;;;2.20;2.10;;;;;;;9.38;100.00;99833.63;4980521;28;20284;-74
2022/10/01 03:02:27;;;;;;;2.80;2.60;;;;;;;9.39;100.00;99832.75;4977972;28;20217;-75
2022/10/01 03:04:56;;;;;;;2.70;2.50;;;;;;;9.41;100.00;99839.63;4976728;28;20204;-75
2022/10/01 03:07:22;;;;;;;2.50;2.40;;;;;;;9.43;100.00;99832.72;4984364;28;20296;-75
2022/10/01 03:09:48;;;;;;;2.37;2.17;;;;;;;9.46;100.00;99829.25;4979432;28;20288;-74
2022/10/01 03:12:15;;;;;;;2.53;2.27;;;;;;;9.49;100.00;99825.75;4979444;28;20220;-75
2022/10/01 03:14:42;;;;;;;2.53;2.00;;;;;;;9.53;100.00;99817.13;4977830;28;20703;-75
2022/10/01 03:17:08;;;;;;;2.40;2.20;;;;;;;9.56;100.00;99817.91;4983841;28;20199;-76
2022/10/01 03:19:33;;;;;;;3.10;2.27;;;;;;;9.60;100.00;99817.03;4979629;28;20187;-75
2022/10/01 03:21:59;;;;;;;2.27;2.07;;;;;;;9.63;100.00;99817.84;4981446;28;20863;-75
2022/10/01 03:24:24;;;;;;;2.37;1.90;;;;;;;9.65;100.00;99810.94;4977125;28;20186;-75
2022/10/01 03:26:50;;;;;;;1.77;1.67;;;;;;;9.67;100.00;99810.03;4978115;28;20311;-74
2022/10/01 03:29:15;;;;;;;3.67;2.17;;;;;;;9.71;100.00;99811.72;4979782;28;20268;-75
2022/10/01 03:31:41;;;;;;;2.03;1.83;;;;;;;9.73;100.00;99804.81;4980512;28;20596;-75
2022/10/01 03:34:06;;;;;;;2.33;1.80;;;;;;;9.75;100.00;99810.81;4990189;28;20213;-75
2022/10/01 03:36:31;;;;;;;1.87;1.77;;;;;;;9.76;100.00;99804.75;4995975;28;20201;-75
2022/10/01 03:38:57;;;;;;;2.17;1.50;;;;;;;9.79;100.00;99806.44;4996989;28;20186;-74
2022/10/01 03:41:22;;;;;;;1.80;1.70;;;;;;;9.83;100.00;99791.75;4996771;28;20278;-75
2022/10/01 03:43:47;;;;;;;2.10;1.90;;;;;;;9.86;100.00;99786.53;4996209;28;20734;-75
2022/10/01 03:46:13;;;;;;;1.87;1.63;;;;;;;9.89;100.00;99784.75;4997378;28;20185;-75
2022/10/01 03:48:38;;;;;;;2.47;2.00;;;;;;;9.93;100.00;99777.81;4994961;28;20204;-74
2022/10/01 03:51:05;;;;;;;1.80;1.60;;;;;;;9.98;100.00;99788.09;4998889;28;20188;-75
2022/10/01 03:53:30;;;;;;;3.00;1.70;;;;;;;10.00;100.00;99784.63;4997745;28;20284;-75
2022/10/01 03:55:57;;;;;;;1.80;1.70;;;;;;;10.04;100.00;99775.94;4995470;28;20790;-75
2022/10/01 03:58:22;;;;;;;2.27;1.60;;;;;;;10.07;100.00;99772.44;4983639;28;21222;-75
2022/10/01 04:00:49;;;;;;;1.73;1.63;;;;;;;10.11;100.00;99768.06;4981983;28;20216;-75
2022/10/01 04:03:14;;;;;;;2.80;1.80;;;;;;;10.15;100.00;99774.91;4982350;28;20944;-75
2022/10/01 04:05:41;;;;;;;1.63;1.53;;;;;;;10.17;100.00;99757.66;4981601;28;20185;-76
2022/10/01 04:08:07;;;;;;;1.33;1.23;;;;;;;10.23;100.00;99767.88;4984190;28;20201;-75
2022/10/01 04:10:32;;;;;;;1.63;1.30;;;;;;;10.28;100.00;99757.47;4985466;28;20547;-75
2022/10/01 04:12:58;;;;;;;2.20;1.67;;;;;;;10.31;100.00;99755.69;4986778;28;20220;-75
2022/10/01 04:15:24;;;;;;;1.70;1.60;;;;;;;10.36;100.00;99748.69;4982289;28;20216;-74
2022/10/01 04:17:49;;;;;;;1.87;1.40;;;;;;;10.40;100.00;99756.44;4983510;28;20216;-75
2022/10/01 04:20:15;;;;;;;1.77;1.60;;;;;;;10.41;100.00;99751.25;4981219;28;20640;-75
2022/10/01 04:22:41;;;;;;;1.60;1.50;;;;;;;10.45;100.00;99749.47;4981331;28;20197;-75
2022/10/01 04:25:11;;;;;;;1.47;1.30;;;;;;;10.52;100.00;99749.34;4983060;28;20193;-75
2022/10/01 04:27:37;;;;;;;1.50;1.40;;;;;;;10.55;100.00;99760.50;4981730;28;20327;-75
2022/10/01 04:30:04;;;;;;;2.20;1.40;;;;;;;10.57;100.00;99758.75;4999054;28;20187;-75
2022/10/01 04:32:30;;;;;;;1.50;1.40;;;;;;;10.58;100.00;99760.47;4983713;28;20215;-76
2022/10/01 04:34:56;;;;;;;1.37;1.20;;;;;;;10.63;100.00;99759.50;4982007;28;20196;-77
2022/10/01 04:37:22;;;;;;;2.43;1.43;;;;;;;10.64;100.00;99766.38;4978406;28;20223;-76
2022/10/01 04:39:47;;;;;;;1.70;1.50;;;;;;;10.66;100.00;99764.59;4986267;28;20227;-76
2022/10/01 04:42:13;;;;;;;2.23;1.60;;;;;;;10.71;100.00;99771.44;4981405;28;20241;-76
2022/10/01 04:44:40;;;;;;;2.03;1.40;;;;;;;10.74;100.00;99773.97;4983714;28;20580;-76
2022/10/01 04:47:06;;;;;;;2.83;1.63;;;;;;;10.77;100.00;99773.94;4986700;28;20758;-76
2022/10/01 04:49:32;;;;;;;2.53;1.60;;;;;;;10.76;100.00;99770.47;4984177;28;20197;-76
2022/10/01 04:51:59;;;;;;;2.03;1.77;;;;;;;10.79;100.00;99767.00;4983166;28;20852;-76
2022/10/01 04:54:24;;;;;;;2.73;1.60;;;;;;;10.76;100.00;99760.13;4981143;28;20735;-76
2022/10/01 04:56:49;;;;;;;1.97;1.40;;;;;;;10.76;100.00;99760.13;4981904;28;20232;-75
2022/10/01 04:59:15;;;;;;;3.47;1.67;;;;;;;10.76;100.00;99762.69;4980166;28;20192;-76
2022/10/01 05:01:42;;;;;;;2.23;1.67;;;;;;;10.73;100.00;99756.72;4981904;28;20847;-76
2022/10/01 05:04:08;;;;;;;2.00;1.80;;;;;;;10.69;100.00;99748.19;4982403;28;20201;-75
2022/10/01 05:06:33;;;;;;;2.40;1.73;;;;;;;10.68;100.00;99755.06;4981592;28;20185;-74
2022/10/01 05:08:59;;;;;;;2.43;2.00;;;;;;;10.68;100.00;99752.50;4982763;28;20249;-74
2022/10/01 05:11:24;;;;;;;2.57;1.70;;;;;;;10.60;100.00;99744.03;4982850;28;20189;-75
2022/10/01 05:13:50;;;;;;;2.53;1.50;;;;;;;10.60;100.00;99744.03;4977319;28;20207;-75
2022/10/01 05:16:15;;;;;;;2.87;1.50;;;;;;;10.55;100.00;99745.81;4981205;28;20251;-76
2022/10/01 05:18:41;;;;;;;2.90;1.77;;;;;;;10.51;100.00;99741.63;4981901;28;20217;-76
2022/10/01 05:21:07;;;;;;;2.77;1.50;;;;;;;10.48;100.00;99739.91;4979213;28;20566;-76
2022/10/01 05:23:32;;;;;;;2.10;1.83;;;;;;;10.43;100.00;99741.75;4982211;28;20189;-76
2022/10/01 05:25:58;;;;;;;2.23;1.73;;;;;;;10.43;100.00;99738.28;4979694;28;20194;-76
2022/10/01 05:28:25;;;;;;;2.13;1.70;;;;;;;10.42;100.00;99734.84;4978837;28;20205;-75
2022/10/01 05:30:51;;;;;;;2.17;1.87;;;;;;;10.38;100.00;99733.19;4979774;28;20568;-75
2022/10/01 05:33:16;;;;;;;1.73;1.50;;;;;;;10.35;100.00;99723.75;4978779;28;20197;-75
2022/10/01 05:35:41;;;;;;;2.17;1.90;;;;;;;10.34;100.00;99716.84;4983057;28;20189;-75
2022/10/01 05:38:07;;;;;;;2.40;1.70;;;;;;;10.32;100.00;99713.44;4982512;28;20281;-75
2022/10/01 05:40:32;;;;;;;2.23;1.50;;;;;;;10.34;100.00;99705.63;4980880;28;20316;-75
2022/10/01 05:42:58;;;;;;;1.83;1.53;;;;;;;10.33;100.00;99709.97;4979547;28;20679;-75
2022/10/01 05:45:26;;;;;;;1.57;1.43;;;;;;;10.29;100.00;99700.56;4980857;28;20189;-75
2022/10/01 05:47:59;;;;;;;2.23;1.70;;;;;;;10.29;100.00;99695.38;4986569;28;20224;-75
2022/10/01 05:50:26;;;;;;;2.13;1.60;;;;;;;10.27;100.00;99686.78;4983327;28;20190;-75
2022/10/01 05:52:53;;;;;;;1.70;1.60;;;;;;;10.26;100.00;99679.91;4985203;28;20212;-75
2022/10/01 05:55:20;;;;;;;1.63;1.53;;;;;;;10.28;100.00;99677.31;4987364;28;20217;-75
2022/10/01 05:58:00;;;;;;;1.70;1.50;;;;;;;10.31;100.00;99683.28;4986512;28;20351;-75
2022/10/01 06:00:27;;;;;;;3.40;1.60;;;;;;;10.28;100.00;99683.31;4981530;28;20193;-75
2022/10/01 06:02:53;;;;;;;1.60;1.47;;;;;;;10.28;100.00;99688.50;4982247;28;20720;-75
2022/10/01 06:05:20;;;;;;;2.10;1.30;;;;;;;10.29;100.00;99682.44;4988354;28;20185;-75
2022/10/01 06:07:45;;;;;;;2.03;1.60;;;;;;;10.30;100.00;99685.88;4979997;28;20727;-75
2022/10/01 06:10:10;;;;;;;1.53;1.43;;;;;;;10.29;100.00;99697.97;4982230;28;20235;-75
2022/10/01 06:12:36;;;;;;;1.90;1.70;;;;;;;10.30;100.00;99710.03;4980132;28;20648;-75
2022/10/01 06:15:01;;;;;;;1.90;1.80;;;;;;;10.32;100.00;99713.44;4980015;28;20284;-75
2022/10/01 06:17:26;;;;;;;1.70;1.60;;;;;;;10.31;100.00;99714.31;4976899;28;20221;-75
2022/10/01 06:19:51;;;;;;;2.10;1.90;;;;;;;10.34;100.00;99715.97;4978525;28;20193;-75
2022/10/01 06:22:17;;;;;;;4.83;1.70;;;;;;;10.35;100.00;99722.88;4978460;28;20197;-74
2022/10/01 06:24:42;;;;;;;2.10;1.90;;;;;;;10.37;100.00;99721.09;4984855;28;20189;-76
2022/10/01 06:27:09;;;;;;;2.37;1.80;;;;;;;10.41;100.00;99732.28;4981226;28;20245;-75
2022/10/01 06:29:34;;;;;;;1.70;1.60;;;;;;;10.42;100.00;99731.41;4982953;28;20200;-76
2022/10/01 06:32:00;;;;;;;2.07;1.80;;;;;;;10.44;100.00;99721.88;4982155;28;20218;-75
2022/10/01 06:34:25;;;;;;;1.70;1.60;;;;;;;10.45;100.00;99713.25;4983622;28;21239;-76
2022/10/01 06:36:50;;;;;;;3.33;2.10;;;;;;;10.51;100.00;99716.56;4984900;28;20209;-76
2022/10/01 06:39:16;;;;;;;1.73;1.63;;;;;;;10.51;100.00;99693.28;4986042;28;20188;-76
2022/10/01 06:41:42;;;;;;;1.60;1.50;;;;;;;10.55;100.00;99698.41;4984558;28;20217;-75
2022/10/01 06:44:08;;;;;;;1.80;1.63;;;;;;;10.55;100.00;99696.66;4978512;28;20189;-75
2022/10/01 06:46:33;;;;;;;2.97;1.97;;;;;;;10.56;100.00;99703.56;4982156;28;20216;-75
2022/10/01 06:48:59;;;;;;;2.43;1.93;;;;;;;10.56;100.00;99707.88;4983895;28;20197;-75
2022/10/01 06:54:10;;;;;;;2.63;1.80;;;;;;;10.56;100.00;99692.38;4958381;28;20227;-75
2022/10/01 06:56:35;;;;;;;2.80;2.10;;;;;;;10.60;100.00;99683.63;4982783;28;20192;-75
2022/10/01 06:59:02;;;;;;;1.80;1.70;;;;;;;10.65;100.00;99671.47;4986811;28;20263;-75
2022/10/01 07:01:27;;;;;;;2.10;1.90;;;;;;;10.70;100.00;99669.66;4980982;28;20205;-75
2022/10/01 07:03:53;;;;;;;1.83;1.60;;;;;;;10.72;100.00;99674.78;4983068;28;20213;-75
2022/10/01 07:06:19;;;;;;;2.40;1.77;;;;;;;10.73;100.00;99681.69;4979522;28;20193;-76
2022/10/01 07:08:48;;;;;;;2.43;1.80;;;;;;;10.74;100.00;99689.41;4979703;28;20719;-75
2022/10/01 07:11:13;;;;;;;1.90;1.80;;;;;;;10.73;100.00;99692.03;4986716;28;20184;-76
2022/10/01 07:13:38;;;;;;;1.87;1.77;;;;;;;10.77;100.00;99686.75;4984672;28;20650;-76
2022/10/01 07:16:04;;;;;;;3.33;1.60;;;;;;;10.78;100.00;99692.81;4980726;28;20239;-75
2022/10/01 07:18:30;;;;;;;2.43;1.90;;;;;;;10.82;100.00;99695.31;4985215;28;20644;-76
2022/10/01 07:20:56;;;;;;;1.90;1.60;;;;;;;10.82;100.00;99689.25;4984986;28;20200;-76
2022/10/01 07:23:23;;;;;;;2.53;1.77;;;;;;;10.87;100.00;99689.19;4987083;28;20186;-76
2022/10/01 07:25:49;;;;;;;2.83;1.77;;;;;;;10.92;100.00;99693.38;4984619;28;20327;-75
2022/10/01 07:28:17;;;;;;;1.70;1.60;;;;;;;10.90;100.00;99692.56;4984132;28;20327;-76
2022/10/01 07:30:55;;;;;;;1.60;1.50;;;;;;;10.89;100.00;99690.84;4986884;28;20194;-77
2022/10/01 07:33:21;;;;;;;1.53;1.43;;;;;;;10.93;100.00;99702.88;4985295;28;20334;-76
2022/10/01 07:35:46;;;;;;;1.87;1.50;;;;;;;10.96;100.00;99705.41;4988401;28;20668;-77
2022/10/01 07:38:12;;;;;;;1.70;1.60;;;;;;;11.02;100.00;99712.19;4988761;28;20217;-76
2022/10/01 07:40:37;;;;;;;2.10;1.90;;;;;;;11.04;100.00;99705.22;4988269;28;20209;-76
2022/10/01 07:43:02;;;;;;;1.73;1.63;;;;;;;11.06;100.00;99712.97;4981434;28;20574;-75
2022/10/01 07:45:28;;;;;;;1.70;1.60;;;;;;;11.07;100.00;99715.50;4987843;28;20223;-75
2022/10/01 07:47:58;;;;;;;2.40;1.70;;;;;;;11.10;100.00;99712.88;4986023;28;20205;-76
2022/10/01 07:50:25;;;;;;;2.40;1.50;;;;;;;11.09;100.00;99718.94;4985889;28;20240;-75
2022/10/01 07:52:55;;;;;;;2.47;1.67;;;;;;;11.16;100.00;99709.28;4985628;28;20667;-76
2022/10/01 07:55:21;;;;;;;1.90;1.80;;;;;;;11.18;100.00;99724.81;4984330;28;20205;-76
2022/10/01 07:57:54;;;;;;;1.97;1.77;;;;;;;11.24;100.00;99735.91;4988160;28;20216;-75
2022/10/01 08:00:20;;;;;;;2.47;2.20;;;;;;;11.23;100.00;99720.38;4981637;28;20270;-75
2022/10/01 08:02:50;;;;;;;2.10;1.90;;;;;;;11.21;100.00;99733.38;4989298;28;20197;-76
2022/10/01 08:05:18;;;;;;;3.17;2.97;;;;;;;11.25;100.00;99723.78;4987084;28;20189;-76
2022/10/01 08:07:44;;;;;;;2.10;1.90;;;;;;;11.24;100.00;99735.03;4985151;28;20949;-74
2022/10/01 08:10:10;;;;;;;2.33;2.13;;;;;;;11.22;100.00;99727.31;5005242;28;20254;-76
2022/10/01 08:12:35;;;;;;;1.93;1.80;;;;;;;11.25;100.00;99739.34;5010950;28;20207;-73
2022/10/01 08:15:05;;;;;;;1.70;1.60;;;;;;;11.22;100.00;99745.44;5010576;28;20331;-72
2022/10/01 08:17:32;;;;;;;1.77;1.63;;;;;;;11.17;100.00;99747.25;5010624;28;20232;-73
2022/10/01 08:19:57;;;;;;;2.00;1.40;;;;;;;11.17;100.00;99747.25;5008711;28;20266;-71
2022/10/01 08:22:22;;;;;;;2.30;1.70;;;;;;;11.23;100.00;99754.06;5009932;28;20358;-76
2022/10/01 08:24:48;;;;;;;1.67;1.43;;;;;;;11.25;100.00;99755.75;5010691;28;20174;-76
2022/10/01 08:27:13;;;;;;;1.80;1.50;;;;;;;11.29;100.00;99757.38;5008537;28;20237;-76
2022/10/01 08:29:40;;;;;;;1.50;1.40;;;;;;;11.33;100.00;99762.50;5006233;28;20182;-75
2022/10/01 08:32:05;;;;;;;1.80;1.70;;;;;;;11.37;100.00;99769.31;5012418;28;20162;-75
2022/10/01 08:34:30;;;;;;;1.50;1.40;;;;;;;11.35;100.00;99765.91;5003023;28;20570;-76
2022/10/01 08:36:56;;;;;;;1.60;1.30;;;;;;;11.35;100.00;99763.31;5012105;28;20195;-75
2022/10/01 08:39:22;;;;;;;2.33;1.50;;;;;;;11.34;100.00;99759.88;5013277;28;20177;-75
2022/10/01 08:42:07;;;;;;;1.90;1.60;;;;;;;11.35;100.00;99758.97;5012024;28;20228;-75
2022/10/01 08:44:42;;;;;;;1.60;1.50;;;;;;;11.40;100.00;99761.50;5009411;28;20189;-75
2022/10/01 08:47:30;;;;;;;2.37;1.60;;;;;;;11.41;100.00;99758.03;5007112;28;20276;-73
2022/10/01 08:50:02;;;;;;;1.70;1.60;;;;;;;11.39;100.00;99752.84;5005377;28;20188;-75
2022/10/01 08:52:31;;;;;;;2.17;1.40;;;;;;;11.44;100.00;99765.72;4999028;28;20733;-77
2022/10/01 08:55:05;;;;;;;1.70;1.60;;;;;;;11.43;100.00;99764.00;5001742;28;20193;-76
2022/10/01 08:57:40;;;;;;;1.97;1.50;;;;;;;11.39;100.00;99759.78;4994927;28;20204;-75
2022/10/01 09:00:12;;;;;;;1.83;1.57;;;;;;;11.38;100.00;99765.84;4987345;28;20190;-75
2022/10/01 09:02:39;;;;;;;3.40;1.63;;;;;;;11.40;100.00;99764.94;4986764;28;20221;-75
2022/10/01 09:05:23;;;;;;;2.37;1.60;;;;;;;11.37;100.00;99767.56;4993971;28;20201;-76
2022/10/01 09:08:14;;;;;;;1.77;1.50;;;;;;;11.40;100.00;99775.28;4979783;28;20221;-75
2022/10/01 09:10:45;;;;;;;2.07;1.40;;;;;;;11.44;100.00;99776.06;4986337;28;20193;-75
2022/10/01 09:13:29;;;;;;;1.67;1.40;;;;;;;11.45;100.00;99780.38;4982901;28;20236;-75
2022/10/01 09:16:10;;;;;;;2.17;1.57;;;;;;;11.46;100.00;99786.41;4981440;28;20622;-75
2022/10/01 09:19:04;;;;;;;1.97;1.33;;;;;;;11.44;100.00;99795.06;4980990;28;20217;-75
2022/10/01 09:22:02;;;;;;;2.37;1.60;;;;;;;11.45;100.00;99795.91;4974911;28;20209;-75
2022/10/01 09:24:43;;;;;;;2.80;1.77;;;;;;;11.47;100.00;99788.97;4973716;28;20198;-75
2022/10/01 09:27:15;;;;;;;1.90;1.47;;;;;;;11.49;100.00;99788.97;4983235;28;20213;-75
2022/10/01 09:29:47;;;;;;;1.97;1.60;;;;;;;11.55;100.00;99783.63;4979430;28;20321;-75
2022/10/01 09:32:17;;;;;;;1.40;1.27;;;;;;;11.57;100.00;99777.50;4982705;28;20183;-75
2022/10/01 09:34:44;;;;;;;1.83;1.53;;;;;;;11.57;100.00;99780.09;4985310;28;20253;-75
2022/10/01 09:37:20;;;;;;;2.23;1.60;;;;;;;11.62;100.00;99781.75;4983523;28;20206;-75
2022/10/01 09:40:01;;;;;;;1.77;1.60;;;;;;;11.67;100.00;99770.41;4982260;28;20185;-76
2022/10/01 09:42:28;;;;;;;2.40;1.60;;;;;;;11.73;100.00;99766.81;4984519;28;20538;-75
2022/10/01 09:44:55;;;;;;;1.50;1.20;;;;;;;11.83;100.00;99763.16;4982533;28;20200;-75
2022/10/01 09:47:22;;;;;;;1.10;1.00;;;;;;;11.95;100.00;99776.72;4984483;28;20211;-76
2022/10/01 09:49:48;;;;;;;1.33;1.23;;;;;;;11.97;100.00;99767.16;4983063;28;20544;-75
2022/10/01 09:52:20;;;;;;;1.67;1.30;;;;;;;11.98;100.00;99763.69;4981368;28;20188;-75
2022/10/01 09:54:51;;;;;;;3.87;1.50;;;;;;;12.06;100.00;99779.94;4982344;28;20320;-75
2022/10/01 09:57:32;;;;;;;1.37;1.27;;;;;;;12.11;100.00;99772.03;4983623;28;20661;-76
2022/10/01 10:00:10;;;;;;;1.50;1.20;;;;;;;12.16;100.00;99768.47;4982719;28;20193;-75
2022/10/01 10:02:47;;;;;;;3.53;1.17;;;;;;;12.13;100.00;99760.75;4985363;28;20222;-76
2022/10/01 10:05:19;;;;;;;1.57;1.00;;;;;;;12.13;100.00;99765.09;4984677;28;20612;-75
2022/10/01 10:07:49;;;;;;;2.20;1.13;;;;;;;12.15;100.00;99774.56;4981391;28;20205;-76
2022/10/01 10:10:26;;;;;;;1.30;1.10;;;;;;;12.14;100.00;99775.44;4984620;28;20220;-76
2022/10/01 10:13:01;;;;;;;2.93;1.20;;;;;;;12.10;100.00;99778.16;4983034;28;20182;-76
2022/10/01 10:15:30;;;;;;;1.40;0.97;;;;;;;12.12;100.00;99778.94;4983996;28;20189;-76
2022/10/01 10:18:08;;;;;;;1.63;1.20;;;;;;;12.21;100.00;99783.94;4983329;28;20219;-76
2022/10/01 10:20:40;;;;;;;1.50;1.17;;;;;;;12.24;100.00;99777.81;4981534;28;20217;-77
2022/10/01 10:23:15;;;;;;;2.20;0.80;;;;;;;12.32;100.00;99776.72;4980904;28;20285;-75
2022/10/01 10:25:40;;;;;;;1.33;1.23;;;;;;;12.40;100.00;99788.69;4981109;28;20189;-76
2022/10/01 10:28:19;;;;;;;0.90;0.90;;;;;;;12.43;100.00;99791.19;4998423;28;20322;-76
2022/10/01 10:30:45;;;;;;;1.83;1.07;;;;;;;12.48;100.00;99784.13;4984342;28;20264;-75
2022/10/01 10:33:13;;;;;;;1.33;1.13;;;;;;;12.53;100.00;99790.09;4981025;28;20194;-75
2022/10/01 10:35:39;;;;;;;1.33;1.00;;;;;;;12.55;100.00;99784.84;4982307;28;20278;-75
2022/10/01 10:38:04;;;;;;;1.93;1.40;;;;;;;12.50;100.00;99775.41;4981168;28;21017;-77
2022/10/01 10:40:41;;;;;;;1.00;0.90;;;;;;;12.57;100.00;99781.31;4983948;28;20182;-75
2022/10/01 10:43:21;;;;;;;1.40;1.10;;;;;;;12.59;100.00;99776.09;4976223;28;20240;-76
2022/10/01 10:45:53;;;;;;;1.90;1.00;;;;;;;12.60;100.00;99778.63;4981299;28;20191;-76
2022/10/01 10:48:19;;;;;;;1.30;1.20;;;;;;;12.64;100.00;99784.59;4979124;28;20225;-75
2022/10/01 10:50:45;;;;;;;0.87;0.83;;;;;;;12.62;100.00;99781.22;4980968;28;20181;-76
2022/10/01 10:53:23;;;;;;;1.07;0.97;;;;;;;12.61;100.00;99780.34;4977992;28;20184;-76
2022/10/01 10:56:05;;;;;;;1.07;0.97;;;;;;;12.62;100.00;99776.03;4979194;28;20802;-75
2022/10/01 10:58:33;;;;;;;1.57;1.00;;;;;;;12.62;100.00;99782.06;4981182;28;20618;-75
2022/10/01 11:01:04;;;;;;;1.20;0.97;;;;;;;12.67;100.00;99784.53;4981601;28;20208;-76
2022/10/01 11:03:31;;;;;;;1.23;1.13;;;;;;;12.68;100.00;99785.38;4979070;28;20271;-76
2022/10/01 11:06:03;;;;;;;1.63;0.77;;;;;;;12.67;100.00;99784.53;4979270;28;20532;-76
2022/10/01 11:08:29;;;;;;;1.60;1.50;;;;;;;12.59;100.00;99782.13;4979387;28;20291;-76
2022/10/01 11:11:12;;;;;;;1.63;0.80;;;;;;;12.59;100.00;99781.28;4976126;28;20276;-75
2022/10/01 11:14:07;;;;;;;1.10;1.00;;;;;;;12.54;100.00;99785.72;4977051;28;20560;-75
2022/10/01 11:16:50;;;;;;;1.53;0.87;;;;;;;12.54;100.00;99781.41;4981745;28;20235;-76
2022/10/01 11:19:36;;;;;;;1.10;0.73;;;;;;;12.54;100.00;99780.53;4996543;28;20185;-75
2022/10/01 11:22:07;;;;;;;0.70;0.70;;;;;;;12.51;100.00;99778.88;4978165;28;20357;-75
2022/10/01 11:24:54;;;;;;;0.70;0.70;;;;;;;12.55;100.00;99790.03;4977667;28;20191;-75
2022/10/01 11:27:43;;;;;;;1.43;0.83;;;;;;;12.58;100.00;99792.56;4979274;28;20208;-75
2022/10/01 11:30:17;;;;;;;0.73;0.63;;;;;;;12.56;100.00;99787.38;4982624;28;20188;-75
2022/10/01 11:33:02;;;;;;;0.70;0.67;;;;;;;12.58;100.00;99787.38;4978047;28;20197;-76
2022/10/01 11:35:43;;;;;;;1.00;0.90;;;;;;;12.66;100.00;99790.59;4978550;28;20189;-75
2022/10/01 11:38:17;;;;;;;2.43;0.90;;;;;;;12.71;100.00;99795.66;4980843;28;20205;-74
2022/10/01 11:40:50;;;;;;;2.17;0.80;;;;;;;12.83;100.00;99789.31;4980863;28;20658;-75
2022/10/01 11:43:39;;;;;;;1.63;0.80;;;;;;;12.97;100.00;99789.78;4980476;28;20187;-75